Time;durP1;ratioP1;P1;durP2;ratioP2;P2;SDS_P1;SDS_P2;PMS_P1;PMS_P2;Temp;Humidity;BMP_temperature;BMP_pressure;BME280_temperature;BME280_humidity;BME280_pressure;Samples;Min_cycle;Max_cycle;Signal;HPM_P1;HPM_P2
2022/01/14 00:03:35;;;;;;;8.70;4.40;;;23.80;51.30;;;;;;215247;1297;22645;-56
2022/01/14 00:08:45;;;;;;;11.90;5.10;;;23.80;50.90;;;;;;215249;1294;22639;-56
2022/01/14 00:14:08;;;;;;;9.50;4.90;;;23.80;50.70;;;;;;215246;1297;22722;-58
2022/01/14 00:19:12;;;;;;;10.20;4.70;;;23.70;50.80;;;;;;215174;1298;24448;-56
2022/01/14 00:34:57;;;;;;;11.30;4.20;;;23.70;50.50;;;;;;214987;1297;26623;-56
2022/01/14 00:40:01;;;;;;;9.70;4.70;;;23.70;50.20;;;;;;215271;1298;25404;-57
2022/01/14 00:45:07;;;;;;;10.30;4.20;;;23.70;49.90;;;;;;215030;1296;24308;-57
2022/01/14 00:50:14;;;;;;;8.30;3.90;;;23.80;49.90;;;;;;215203;1294;22705;-54
2022/01/14 00:55:29;;;;;;;7.70;4.50;;;23.80;50.10;;;;;;215219;1294;22581;-56
2022/01/14 01:00:34;;;;;;;6.60;3.90;;;23.70;49.70;;;;;;215188;1296;24321;-57
2022/01/14 01:05:39;;;;;;;8.00;3.90;;;23.70;49.80;;;;;;215051;1296;22681;-57
2022/01/14 01:10:48;;;;;;;8.10;4.10;;;23.80;49.70;;;;;;215277;1293;25681;-56
2022/01/14 01:15:54;;;;;;;7.30;3.70;;;23.80;49.50;;;;;;215195;1298;25579;-57
2022/01/14 01:21:00;;;;;;;8.10;4.10;;;23.70;49.60;;;;;;215452;1293;22619;-56
2022/01/14 01:26:13;;;;;;;7.90;3.60;;;23.70;49.50;;;;;;215572;1293;24361;-56
2022/01/14 01:31:36;;;;;;;8.60;4.00;;;23.70;49.40;;;;;;215659;1293;23991;-56
2022/01/14 01:36:43;;;;;;;8.10;3.90;;;23.70;49.30;;;;;;215268;1298;24243;-55
2022/01/14 01:41:54;;;;;;;9.30;3.60;;;23.70;49.30;;;;;;215325;1293;22598;-57
2022/01/14 01:47:01;;;;;;;6.70;3.60;;;23.70;49.30;;;;;;215245;1293;22706;-57
2022/01/14 01:52:06;;;;;;;8.30;4.10;;;23.60;49.50;;;;;;215389;1293;22591;-54
2022/01/14 01:57:11;;;;;;;7.30;3.50;;;23.60;49.30;;;;;;215249;1296;22576;-56
2022/01/14 02:02:15;;;;;;;5.30;3.50;;;23.60;49.50;;;;;;215371;1296;24345;-55
2022/01/14 02:07:22;;;;;;;7.90;3.50;;;23.60;49.10;;;;;;215202;1297;24348;-54
2022/01/14 02:12:46;;;;;;;5.60;3.40;;;23.70;49.00;;;;;;215384;1296;22663;-57
2022/01/14 02:18:25;;;;;;;8.00;4.20;;;23.70;49.40;;;;;;215167;1293;22644;-56
2022/01/14 02:23:23;;;;;;;5.50;3.30;;;23.70;48.90;;;;;;215393;1296;22714;-54
2022/01/14 02:28:28;;;;;;;9.00;3.90;;;23.70;48.70;;;;;;215623;1293;26670;-57
2022/01/14 02:33:31;;;;;;;6.00;3.80;;;23.80;48.40;;;;;;215187;1293;24107;-58
2022/01/14 02:38:36;;;;;;;6.70;3.60;;;23.80;48.50;;;;;;215027;1295;22597;-55
2022/01/14 02:43:40;;;;;;;5.80;3.40;;;23.80;48.50;;;;;;215197;1293;25639;-56
2022/01/14 02:48:43;;;;;;;7.40;3.70;;;23.80;48.50;;;;;;215231;1296;22573;-54
2022/01/14 02:53:57;;;;;;;6.70;3.60;;;23.80;48.60;;;;;;215169;1296;22794;-56
2022/01/14 02:59:02;;;;;;;6.70;3.70;;;23.80;48.90;;;;;;215245;1296;24005;-56
2022/01/14 03:04:07;;;;;;;6.00;3.40;;;23.80;48.90;;;;;;215345;1293;23067;-56
2022/01/14 03:09:12;;;;;;;5.70;3.40;;;23.80;48.60;;;;;;215386;1293;23371;-56
2022/01/14 03:14:22;;;;;;;6.40;3.60;;;23.70;48.50;;;;;;215214;1293;23557;-54
2022/01/14 03:19:27;;;;;;;7.50;3.90;;;23.80;48.50;;;;;;215594;1293;22622;-53
2022/01/14 03:29:41;;;;;;;5.30;3.30;;;23.70;48.50;;;;;;215294;1294;25311;-53
2022/01/14 03:34:46;;;;;;;4.60;3.00;;;23.80;48.40;;;;;;215402;1296;22585;-57
2022/01/14 03:39:50;;;;;;;5.60;3.10;;;23.70;48.30;;;;;;215140;1293;25556;-59
2022/01/14 03:44:57;;;;;;;5.70;3.10;;;23.70;48.40;;;;;;215408;1293;24653;-57
2022/01/14 03:50:05;;;;;;;5.40;3.50;;;23.70;48.20;;;;;;215458;1293;24315;-57
2022/01/14 03:55:09;;;;;;;5.20;3.30;;;23.70;48.30;;;;;;215278;1293;25513;-59
2022/01/14 04:00:25;;;;;;;7.90;3.30;;;23.70;48.30;;;;;;215325;1296;24334;-57
2022/01/14 04:05:28;;;;;;;4.60;3.10;;;23.70;48.30;;;;;;215244;1293;25385;-55
2022/01/14 04:10:32;;;;;;;5.70;3.10;;;23.70;48.50;;;;;;214781;1296;22580;-56
2022/01/14 04:15:36;;;;;;;3.90;2.90;;;23.80;48.10;;;;;;215258;1293;22588;-54
2022/01/14 04:20:42;;;;;;;4.70;3.10;;;23.70;48.00;;;;;;215006;1296;22644;-57
2022/01/14 04:25:51;;;;;;;4.80;3.00;;;23.80;47.90;;;;;;215379;1293;24301;-58
2022/01/14 04:30:56;;;;;;;5.10;3.00;;;23.80;47.80;;;;;;215369;1293;25978;-54
2022/01/14 04:36:00;;;;;;;6.10;3.20;;;23.80;48.20;;;;;;215433;1295;22583;-53
2022/01/14 04:41:04;;;;;;;5.00;3.20;;;23.80;47.80;;;;;;215187;1295;25624;-57
2022/01/14 04:51:11;;;;;;;5.40;3.20;;;23.80;47.60;;;;;;215362;1293;23254;-55
2022/01/14 04:56:15;;;;;;;6.00;3.10;;;23.80;47.90;;;;;;215246;1293;25539;-55
2022/01/14 05:01:19;;;;;;;5.80;3.20;;;23.70;47.70;;;;;;215058;1295;23447;-53
2022/01/14 05:06:22;;;;;;;4.90;3.10;;;23.70;47.90;;;;;;215583;1293;23255;-57
2022/01/14 05:11:38;;;;;;;5.00;3.10;;;23.70;47.80;;;;;;214983;1296;22585;-55
2022/01/14 05:16:41;;;;;;;6.20;3.10;;;23.70;47.60;;;;;;215421;1293;22579;-54
2022/01/14 05:21:45;;;;;;;5.10;3.40;;;23.70;47.60;;;;;;215390;1293;24300;-57
2022/01/14 05:26:49;;;;;;;4.70;3.20;;;23.70;47.70;;;;;;215507;1293;25430;-56
2022/01/14 05:32:08;;;;;;;4.70;2.70;;;23.70;48.00;;;;;;215385;1296;25499;-55
2022/01/14 05:37:13;;;;;;;4.70;3.10;;;23.70;47.60;;;;;;215401;1293;24367;-55
2022/01/14 05:42:18;;;;;;;4.10;2.80;;;23.70;48.20;;;;;;215524;1293;22592;-57
2022/01/14 05:47:21;;;;;;;4.60;2.80;;;23.70;47.50;;;;;;215408;1293;25519;-55
2022/01/14 05:52:26;;;;;;;5.80;3.00;;;23.70;47.50;;;;;;215448;1293;25122;-56
2022/01/14 05:57:34;;;;;;;5.50;3.10;;;23.70;47.90;;;;;;215048;1293;283517;-58
2022/01/14 06:02:38;;;;;;;5.90;3.00;;;23.70;47.40;;;;;;215365;1293;22582;-57
2022/01/14 06:07:42;;;;;;;5.00;3.10;;;23.70;47.40;;;;;;215385;1293;22611;-57
2022/01/14 06:12:45;;;;;;;10.90;2.90;;;23.70;47.50;;;;;;215224;1293;25772;-57
2022/01/14 06:17:49;;;;;;;4.60;2.80;;;23.80;47.60;;;;;;215141;1293;22641;-57
2022/01/14 06:22:52;;;;;;;4.20;2.70;;;23.80;47.30;;;;;;215188;1293;22607;-55
2022/01/14 06:27:56;;;;;;;4.60;2.70;;;23.80;47.30;;;;;;215368;1293;25337;-57
2022/01/14 06:33:01;;;;;;;5.30;3.10;;;23.80;47.30;;;;;;215467;1293;25636;-57
2022/01/14 06:38:05;;;;;;;5.10;3.00;;;23.70;47.70;;;;;;215360;1293;24337;-56
2022/01/14 06:43:14;;;;;;;5.20;3.00;;;23.80;47.40;;;;;;215497;1293;25308;-57
2022/01/14 06:48:19;;;;;;;7.00;3.50;;;23.80;47.40;;;;;;215528;1293;22743;-55
2022/01/14 06:53:23;;;;;;;5.40;3.10;;;23.80;47.90;;;;;;215567;1293;22595;-54
2022/01/14 06:58:30;;;;;;;5.70;2.90;;;23.80;47.90;;;;;;215367;1293;22524;-55
2022/01/14 07:03:34;;;;;;;6.10;3.10;;;23.80;47.90;;;;;;215406;1293;22736;-55
2022/01/14 07:08:38;;;;;;;4.60;2.90;;;23.80;48.50;;;;;;215272;1293;22840;-56
2022/01/14 07:13:42;;;;;;;4.30;2.80;;;23.80;48.20;;;;;;215225;1293;24300;-55
2022/01/14 07:18:48;;;;;;;10.20;3.20;;;23.80;48.40;;;;;;215061;1293;22575;-55
2022/01/14 07:23:54;;;;;;;4.10;2.30;;;23.80;48.60;;;;;;215759;1293;22598;-56
2022/01/14 07:29:00;;;;;;;8.00;3.50;;;23.80;48.80;;;;;;215438;1292;26181;-53
2022/01/14 07:34:06;;;;;;;5.80;3.10;;;23.80;48.60;;;;;;215294;1293;22598;-55
2022/01/14 07:39:11;;;;;;;9.80;3.30;;;23.90;48.90;;;;;;215326;1293;25392;-55
2022/01/14 07:44:15;;;;;;;7.70;2.80;;;23.80;48.80;;;;;;215312;1293;25521;-52
2022/01/14 07:49:19;;;;;;;4.10;2.70;;;23.90;48.60;;;;;;215681;1293;24343;-54
2022/01/14 07:54:22;;;;;;;11.70;3.40;;;23.90;48.40;;;;;;215420;1293;25548;-52
2022/01/14 07:59:29;;;;;;;10.30;3.10;;;23.80;48.30;;;;;;215165;1293;22820;-55
2022/01/14 08:04:35;;;;;;;6.60;3.40;;;23.90;48.20;;;;;;215425;1293;24300;-55
2022/01/14 08:09:42;;;;;;;8.10;2.90;;;23.90;48.30;;;;;;215314;1293;23014;-58
2022/01/14 08:14:45;;;;;;;25.60;3.90;;;23.80;48.30;;;;;;215582;1293;26785;-57
2022/01/14 08:19:53;;;;;;;16.40;3.30;;;23.90;48.40;;;;;;215264;1293;27084;-56
2022/01/14 08:25:00;;;;;;;16.30;3.70;;;23.90;48.40;;;;;;215312;1293;22628;-57
2022/01/14 08:30:06;;;;;;;9.00;3.50;;;23.90;48.10;;;;;;215278;1293;26549;-57
2022/01/14 08:35:12;;;;;;;13.20;3.00;;;23.90;48.80;;;;;;215345;1292;22743;-58
2022/01/14 08:40:16;;;;;;;10.60;3.00;;;23.80;48.70;;;;;;215173;1295;24364;-59
2022/01/14 08:45:21;;;;;;;6.30;2.50;;;23.80;48.50;;;;;;214841;1295;22588;-60
2022/01/14 08:50:31;;;;;;;10.80;2.90;;;23.70;48.40;;;;;;215198;1293;24269;-56
2022/01/14 08:55:36;;;;;;;10.70;3.30;;;23.70;48.80;;;;;;215279;1293;22576;-57
2022/01/14 09:00:40;;;;;;;9.60;3.20;;;23.60;48.70;;;;;;215205;1293;25572;-60
2022/01/14 09:05:44;;;;;;;7.00;3.50;;;23.60;49.30;;;;;;215436;1293;22650;-55
2022/01/14 09:10:53;;;;;;;8.00;3.10;;;23.60;49.60;;;;;;215230;1293;22585;-55
2022/01/14 09:15:57;;;;;;;5.70;3.00;;;23.40;50.60;;;;;;215526;1293;22567;-53
2022/01/14 09:21:02;;;;;;;7.90;3.40;;;23.50;50.90;;;;;;215114;1293;24387;-50
2022/01/14 09:26:06;;;;;;;8.50;2.90;;;23.40;51.10;;;;;;215024;1296;24498;-54
2022/01/14 09:31:13;;;;;;;7.60;3.00;;;23.30;50.90;;;;;;217153;1295;22846;-52
2022/01/14 09:36:18;;;;;;;7.90;3.60;;;23.30;51.80;;;;;;215303;1293;25509;-53
2022/01/14 09:41:22;;;;;;;8.80;3.20;;;23.30;51.90;;;;;;217755;1293;24266;-51
2022/01/14 09:46:27;;;;;;;7.90;3.50;;;23.30;52.00;;;;;;215659;1293;24276;-51
2022/01/14 09:51:34;;;;;;;7.60;3.20;;;23.20;51.80;;;;;;215173;1293;25597;-52
2022/01/14 09:56:45;;;;;;;8.10;3.40;;;23.10;52.50;;;;;;215343;1296;22585;-53
2022/01/14 10:01:54;;;;;;;6.80;3.40;;;23.10;52.20;;;;;;215311;1295;25498;-54
2022/01/14 10:07:03;;;;;;;6.10;2.70;;;23.10;52.70;;;;;;215061;1294;26933;-50
2022/01/14 10:12:15;;;;;;;5.70;3.20;;;23.00;52.10;;;;;;215176;1293;23197;-53
2022/01/14 10:17:49;;;;;;;5.90;3.10;;;23.00;52.00;;;;;;214967;1293;22784;-55
2022/01/14 10:22:56;;;;;;;9.90;3.60;;;23.00;52.20;;;;;;215866;1293;22600;-50
2022/01/14 10:28:17;;;;;;;6.30;3.00;;;22.90;51.70;;;;;;215287;1293;26793;-49
2022/01/14 10:33:28;;;;;;;5.60;3.00;;;22.90;51.80;;;;;;215038;1293;22721;-48
2022/01/14 10:38:46;;;;;;;5.00;3.20;;;22.90;51.80;;;;;;215339;1296;22646;-50
2022/01/14 10:43:49;;;;;;;6.00;3.80;;;22.80;51.30;;;;;;215384;1293;22576;-48
2022/01/14 10:48:57;;;;;;;5.80;2.90;;;22.90;51.30;;;;;;215152;1293;25467;-48
2022/01/14 10:54:08;;;;;;;5.90;3.10;;;22.90;52.00;;;;;;215158;1293;25687;-50
2022/01/14 10:59:12;;;;;;;8.30;3.20;;;22.90;51.90;;;;;;217530;1293;22655;-49
2022/01/14 11:04:19;;;;;;;6.20;3.70;;;22.90;51.10;;;;;;215412;1293;22567;-50
2022/01/14 11:09:24;;;;;;;5.30;3.30;;;23.00;50.90;;;;;;215465;1294;22607;-51
2022/01/14 11:14:30;;;;;;;5.30;3.20;;;22.90;51.00;;;;;;215462;1293;22567;-49
2022/01/14 11:19:35;;;;;;;5.20;3.10;;;22.90;50.80;;;;;;215290;1293;22752;-50
2022/01/14 11:24:39;;;;;;;4.50;3.10;;;22.80;50.50;;;;;;215474;1293;22598;-50
2022/01/14 11:29:48;;;;;;;8.90;3.10;;;22.80;50.90;;;;;;215252;1293;24317;-50
2022/01/14 11:34:53;;;;;;;7.10;3.50;;;22.80;50.90;;;;;;215662;1293;22655;-48
2022/01/14 11:40:12;;;;;;;7.00;3.20;;;22.80;50.80;;;;;;215552;1293;24273;-53
2022/01/14 11:45:46;;;;;;;7.60;3.20;;;22.80;51.80;;;;;;215735;1293;22590;-51
2022/01/14 11:50:52;;;;;;;7.50;3.20;;;22.70;53.80;;;;;;215586;1293;23018;-53
2022/01/14 11:55:57;;;;;;;7.70;3.60;;;22.50;53.50;;;;;;215316;1296;22601;-52
2022/01/14 12:01:04;;;;;;;9.70;3.20;;;22.40;53.40;;;;;;215356;1296;22628;-52
2022/01/14 12:06:09;;;;;;;8.50;3.70;;;22.40;55.50;;;;;;215369;1293;22595;-50
2022/01/14 12:11:14;;;;;;;7.80;3.70;;;22.40;54.30;;;;;;215311;1293;25856;-52
2022/01/14 12:16:46;;;;;;;8.90;3.40;;;22.40;55.30;;;;;;215568;1293;22596;-49
2022/01/14 12:21:51;;;;;;;8.50;3.80;;;22.30;55.90;;;;;;215183;1293;22623;-54
2022/01/14 12:26:58;;;;;;;5.50;3.60;;;22.40;58.70;;;;;;215199;1293;25468;-54
2022/01/14 12:32:04;;;;;;;6.80;3.60;;;22.40;58.30;;;;;;215192;1293;25619;-52
2022/01/14 12:37:10;;;;;;;11.60;3.80;;;22.50;57.70;;;;;;215429;1296;24511;-53
2022/01/14 12:42:18;;;;;;;6.90;3.60;;;22.50;58.90;;;;;;215356;1293;24489;-54
2022/01/14 12:47:24;;;;;;;7.50;4.00;;;22.50;58.60;;;;;;215270;1293;25565;-54
2022/01/14 12:52:40;;;;;;;6.70;3.70;;;22.50;58.90;;;;;;215752;1293;22763;-52
2022/01/14 12:57:46;;;;;;;11.00;4.20;;;22.40;60.30;;;;;;215509;1295;24470;-55
2022/01/14 13:02:51;;;;;;;7.60;4.00;;;22.40;58.30;;;;;;215711;1293;25561;-55
2022/01/14 13:07:55;;;;;;;12.70;4.10;;;22.50;59.90;;;;;;215556;1293;24269;-55
2022/01/14 13:13:03;;;;;;;7.50;4.10;;;22.40;57.90;;;;;;215591;1293;22594;-55
2022/01/14 13:18:14;;;;;;;6.10;3.90;;;22.40;59.70;;;;;;215514;1293;22576;-53
2022/01/14 13:23:21;;;;;;;;;;;22.40;60.50;;;;;;215504;1293;22648;-50
2022/01/14 13:28:24;;;;;;;10.30;3.70;;;22.30;58.50;;;;;;215299;1293;23074;-52
2022/01/14 13:33:29;;;;;;;7.90;4.40;;;22.30;59.60;;;;;;215213;1296;22633;-51
2022/01/14 13:38:33;;;;;;;11.60;3.80;;;22.20;59.00;;;;;;215659;1293;24211;-54
2022/01/14 13:43:40;;;;;;;9.70;3.70;;;22.20;57.70;;;;;;215840;1293;22635;-51
2022/01/14 13:48:55;;;;;;;10.10;4.00;;;22.20;60.90;;;;;;215246;1293;25337;-53
2022/01/14 13:54:19;;;;;;;14.10;4.00;;;22.30;60.90;;;;;;215564;1293;22633;-55
2022/01/14 13:59:33;;;;;;;10.00;3.30;;;22.40;59.30;;;;;;215510;1293;22586;-53
2022/01/14 14:04:47;;;;;;;10.60;4.90;;;22.40;61.10;;;;;;215565;1293;24300;-54
2022/01/14 14:10:47;;;;;;;;;;;;;;;;;;;;;
2022/01/14 14:15:55;;;;;;;7.60;3.90;;;22.40;61.90;;;;;;215376;1293;22614;-57
2022/01/14 14:21:15;;;;;;;6.30;4.00;;;22.40;62.20;;;;;;215649;1293;24244;-52
2022/01/14 14:26:29;;;;;;;7.30;3.40;;;22.30;62.10;;;;;;215666;1293;25288;-56
2022/01/14 14:31:39;;;;;;;6.80;3.80;;;22.30;62.60;;;;;;215427;1293;22642;-58
2022/01/14 14:36:46;;;;;;;6.30;3.70;;;22.30;62.20;;;;;;215621;1293;22621;-58
2022/01/14 14:41:53;;;;;;;5.10;3.30;;;22.30;61.70;;;;;;215416;1293;25569;-58
2022/01/14 14:46:59;;;;;;;6.30;3.20;;;22.30;61.00;;;;;;215570;1293;24807;-58
2022/01/14 14:52:07;;;;;;;5.30;2.80;;;22.30;61.60;;;;;;215532;1293;25633;-54
2022/01/14 14:57:35;;;;;;;7.70;3.60;;;22.30;62.20;;;;;;215201;1293;22638;-59
2022/01/14 15:02:46;;;;;;;5.60;3.30;;;22.20;61.70;;;;;;215265;1293;25373;-57
2022/01/14 15:07:58;;;;;;;11.60;3.50;;;22.20;60.40;;;;;;215296;1293;24346;-56
2022/01/14 15:13:13;;;;;;;15.70;3.20;;;22.20;61.20;;;;;;215208;1293;24463;-57
2022/01/14 15:18:32;;;;;;;19.20;4.10;;;22.20;61.60;;;;;;215366;1293;22593;-56
2022/01/14 15:23:50;;;;;;;13.10;3.50;;;22.30;62.50;;;;;;215158;1293;24374;-55
2022/01/14 15:29:06;;;;;;;5.90;3.50;;;22.50;64.40;;;;;;215450;1293;24287;-56
2022/01/14 15:34:13;;;;;;;13.10;4.10;;;22.60;65.00;;;;;;215224;1293;24511;-58
2022/01/14 15:39:21;;;;;;;9.20;3.20;;;22.50;64.50;;;;;;215553;1293;22593;-59
2022/01/14 15:44:26;;;;;;;5.20;2.70;;;22.50;63.70;;;;;;215061;1296;22702;-57
2022/01/14 15:49:31;;;;;;;12.20;3.20;;;22.40;64.10;;;;;;215162;1293;22518;-57
2022/01/14 15:54:40;;;;;;;12.50;3.50;;;22.40;63.50;;;;;;214946;1293;24319;-55
2022/01/14 15:59:44;;;;;;;13.30;3.50;;;22.40;64.50;;;;;;215778;1293;24362;-57
2022/01/14 16:04:51;;;;;;;9.00;2.90;;;22.40;63.70;;;;;;214656;1294;22750;-62
2022/01/14 16:10:00;;;;;;;6.30;2.90;;;22.30;61.90;;;;;;215364;1293;24429;-58
2022/01/14 16:15:10;;;;;;;5.90;3.10;;;22.30;62.50;;;;;;222824;1294;22516;-60
2022/01/14 16:20:19;;;;;;;5.60;2.80;;;22.30;62.30;;;;;;218099;1294;22755;-61
2022/01/14 16:25:28;;;;;;;9.00;3.00;;;22.30;62.70;;;;;;215494;1293;22672;-56
2022/01/14 16:30:40;;;;;;;10.50;3.10;;;22.30;62.80;;;;;;214645;1296;23283;-60
2022/01/14 16:35:46;;;;;;;8.90;3.30;;;22.30;61.60;;;;;;219059;1293;23043;-54
2022/01/14 16:40:59;;;;;;;9.00;3.10;;;22.40;63.40;;;;;;215249;1293;22856;-51
2022/01/14 16:46:09;;;;;;;7.60;2.70;;;22.60;63.50;;;;;;214820;1293;25570;-55
2022/01/14 16:51:14;;;;;;;6.50;2.70;;;22.60;62.80;;;;;;215453;1295;22602;-56
2022/01/14 16:56:26;;;;;;;12.00;3.00;;;22.40;60.40;;;;;;215085;1295;22666;-54
2022/01/14 17:01:31;;;;;;;6.30;3.10;;;22.40;61.90;;;;;;214836;1296;22738;-56
2022/01/14 17:06:49;;;;;;;7.00;2.90;;;22.40;61.60;;;;;;217256;1295;26664;-53
2022/01/14 17:11:59;;;;;;;9.30;3.50;;;22.30;60.80;;;;;;219318;1294;22870;-58
2022/01/14 17:17:16;;;;;;;6.70;3.30;;;22.40;61.50;;;;;;217959;1294;22655;-60
2022/01/14 17:22:39;;;;;;;8.40;3.40;;;22.40;61.90;;;;;;215366;1296;24334;-59
2022/01/14 17:27:50;;;;;;;7.00;3.10;;;22.40;61.50;;;;;;215454;1293;22604;-52
2022/01/14 17:33:07;;;;;;;;;;;22.30;61.50;;;;;;215324;1294;26635;-50
2022/01/14 17:38:18;;;;;;;13.60;2.90;;;22.30;61.10;;;;;;215231;1296;25293;-53
2022/01/14 17:43:32;;;;;;;14.60;5.80;;;22.20;61.00;;;;;;215530;1293;22587;-50
2022/01/14 17:48:42;;;;;;;13.80;4.80;;;22.20;61.30;;;;;;215442;1293;22621;-55
2022/01/14 17:53:47;;;;;;;9.80;4.10;;;22.20;62.30;;;;;;215121;1294;164356;-53
2022/01/14 17:58:56;;;;;;;8.40;4.70;;;22.20;62.00;;;;;;214985;1297;26690;-51
2022/01/14 18:04:09;;;;;;;9.10;4.40;;;22.30;62.40;;;;;;215037;1294;22662;-53
2022/01/14 18:09:21;;;;;;;7.70;4.40;;;22.30;60.70;;;;;;214811;1294;26563;-54
2022/01/14 18:14:46;;;;;;;9.00;3.80;;;22.40;60.20;;;;;;214941;1293;23092;-51
2022/01/14 18:20:07;;;;;;;8.20;4.20;;;22.30;60.10;;;;;;214862;1294;22637;-55
2022/01/14 18:25:15;;;;;;;7.30;3.90;;;22.30;58.30;;;;;;214993;1294;22563;-55
2022/01/14 18:30:24;;;;;;;8.60;3.20;;;22.30;57.90;;;;;;215441;1297;22661;-54
2022/01/14 18:35:28;;;;;;;5.90;2.90;;;22.30;58.30;;;;;;215449;1295;24486;-57
2022/01/14 18:40:33;;;;;;;6.80;3.10;;;22.30;57.90;;;;;;215225;1298;25182;-55
2022/01/14 18:45:38;;;;;;;6.20;3.20;;;22.20;57.50;;;;;;214935;1298;22644;-56
2022/01/14 18:50:47;;;;;;;11.20;3.70;;;22.20;58.00;;;;;;215401;1297;24375;-55
2022/01/14 18:55:54;;;;;;;6.00;3.00;;;22.20;58.10;;;;;;214847;1294;22576;-58
2022/01/14 19:01:04;;;;;;;7.20;3.40;;;22.20;59.30;;;;;;215036;1297;25553;-56
2022/01/14 19:06:14;;;;;;;8.20;3.40;;;22.20;59.20;;;;;;215638;1293;22816;-58
2022/01/14 19:11:26;;;;;;;6.90;3.00;;;22.30;60.20;;;;;;215376;1293;25311;-57
2022/01/14 19:16:34;;;;;;;13.30;3.20;;;22.40;62.40;;;;;;215290;1294;22711;-56
2022/01/14 19:21:40;;;;;;;7.70;3.30;;;22.50;62.30;;;;;;215309;1297;25368;-59
2022/01/14 19:26:45;;;;;;;13.80;3.10;;;22.40;60.00;;;;;;215442;1296;25713;-61
2022/01/14 19:32:08;;;;;;;9.60;3.00;;;22.50;62.50;;;;;;215202;1296;24256;-60
2022/01/14 19:37:19;;;;;;;9.70;2.80;;;22.50;62.10;;;;;;215439;1297;22609;-60
2022/01/14 19:42:42;;;;;;;8.90;2.70;;;22.40;62.20;;;;;;215083;1299;22664;-59
2022/01/14 19:47:51;;;;;;;6.30;2.40;;;22.50;62.40;;;;;;215131;1296;24458;-59
2022/01/14 19:52:57;;;;;;;4.50;2.40;;;22.50;62.80;;;;;;215231;1294;22647;-61
2022/01/14 19:58:03;;;;;;;7.70;2.10;;;22.50;62.50;;;;;;215339;1293;25544;-60
2022/01/14 20:03:14;;;;;;;7.60;2.20;;;22.40;62.50;;;;;;215099;1296;22723;-60
2022/01/14 20:08:27;;;;;;;6.20;1.90;;;22.40;63.40;;;;;;215333;1296;24244;-59
2022/01/14 20:14:07;;;;;;;4.30;1.80;;;22.40;63.60;;;;;;215269;1293;26690;-58
2022/01/14 20:19:50;;;;;;;7.70;1.70;;;22.40;63.70;;;;;;215055;1293;24468;-62
2022/01/14 20:25:19;;;;;;;6.90;2.10;;;22.30;66.10;;;;;;215314;1294;24539;-61
2022/01/14 20:30:57;;;;;;;6.20;1.60;;;22.50;67.10;;;;;;215056;1294;22601;-60
2022/01/14 20:36:30;;;;;;;4.50;1.50;;;22.50;66.60;;;;;;215118;1293;22762;-60
2022/01/14 20:41:49;;;;;;;3.10;1.40;;;22.40;66.80;;;;;;215112;1293;28306;-60
2022/01/14 20:47:01;;;;;;;3.20;1.20;;;22.60;66.50;;;;;;215599;1293;22945;-62
2022/01/14 20:52:17;;;;;;;4.50;1.30;;;22.60;66.40;;;;;;215383;1293;24295;-59
2022/01/14 20:57:56;;;;;;;2.80;1.10;;;22.40;66.60;;;;;;215096;1293;25639;-61
2022/01/14 21:03:05;;;;;;;2.90;1.30;;;22.60;66.80;;;;;;215110;1293;25476;-60
2022/01/14 21:08:29;;;;;;;2.80;1.10;;;22.60;67.40;;;;;;214815;1293;25508;-60
2022/01/14 21:13:40;;;;;;;3.10;1.50;;;22.60;67.20;;;;;;215370;1293;25387;-58
2022/01/14 21:18:52;;;;;;;2.70;1.30;;;22.60;67.50;;;;;;215093;1293;22601;-60
2022/01/14 21:23:58;;;;;;;5.40;1.40;;;22.50;66.30;;;;;;215067;1293;22679;-60
2022/01/14 21:29:18;;;;;;;1.90;1.10;;;22.40;66.50;;;;;;215025;1292;24285;-59
2022/01/14 21:34:27;;;;;;;3.10;1.10;;;22.40;66.60;;;;;;214837;1293;26702;-58
2022/01/14 21:39:51;;;;;;;2.30;1.10;;;22.40;66.80;;;;;;214822;1293;24260;-58
2022/01/14 21:44:59;;;;;;;2.40;1.20;;;22.40;67.10;;;;;;214963;1293;22707;-58
2022/01/14 21:50:13;;;;;;;3.80;1.00;;;22.50;67.20;;;;;;215085;1293;24481;-60
2022/01/14 21:55:46;;;;;;;2.90;1.00;;;22.80;67.30;;;;;;215100;1293;25818;-60
2022/01/14 22:00:54;;;;;;;2.70;1.10;;;22.80;66.70;;;;;;215196;1293;26692;-59
2022/01/14 22:06:01;;;;;;;2.60;1.40;;;23.00;66.10;;;;;;214807;1293;22785;-57
2022/01/14 22:11:13;;;;;;;4.10;1.00;;;22.80;67.30;;;;;;214933;1293;24314;-57
2022/01/14 22:16:24;;;;;;;3.80;1.10;;;22.80;66.90;;;;;;214987;1293;24374;-57
2022/01/14 22:21:52;;;;;;;3.60;1.40;;;22.80;66.30;;;;;;214903;1293;24341;-58
2022/01/14 22:27:08;;;;;;;5.40;1.70;;;22.70;67.20;;;;;;215089;1293;22584;-57
2022/01/14 22:32:20;;;;;;;4.40;1.40;;;22.60;67.40;;;;;;215129;1293;24295;-59
2022/01/14 22:37:35;;;;;;;3.50;1.20;;;22.60;67.30;;;;;;214882;1293;24423;-58
2022/01/14 22:42:41;;;;;;;3.40;1.40;;;22.50;67.00;;;;;;215251;1293;25405;-56
2022/01/14 22:47:45;;;;;;;2.70;1.20;;;22.40;67.10;;;;;;215142;1293;25296;-56
2022/01/14 22:52:50;;;;;;;6.50;1.70;;;22.40;66.70;;;;;;215612;1293;24349;-58
2022/01/14 22:57:55;;;;;;;3.40;1.40;;;22.30;66.40;;;;;;214889;1296;25260;-58
2022/01/14 23:02:59;;;;;;;3.20;1.10;;;22.30;66.30;;;;;;215192;1293;25463;-57
2022/01/14 23:08:04;;;;;;;3.30;1.40;;;22.30;67.30;;;;;;215233;1296;24307;-58
2022/01/14 23:13:09;;;;;;;3.30;1.40;;;22.20;66.40;;;;;;214927;1296;23136;-59
2022/01/14 23:18:14;;;;;;;5.70;1.40;;;22.20;66.20;;;;;;214887;1293;22644;-57
2022/01/14 23:23:28;;;;;;;3.00;1.40;;;22.10;66.40;;;;;;215092;1293;22749;-57
2022/01/14 23:28:40;;;;;;;3.10;1.70;;;22.10;67.30;;;;;;214792;1293;22677;-59
2022/01/14 23:33:44;;;;;;;3.60;1.70;;;22.00;66.50;;;;;;214709;1293;22592;-56
2022/01/14 23:38:47;;;;;;;5.00;2.00;;;22.00;65.50;;;;;;215645;1293;24282;-58
2022/01/14 23:49:06;;;;;;;4.30;1.70;;;21.90;66.20;;;;;;214942;1296;22598;-56
2022/01/14 23:54:10;;;;;;;4.00;1.60;;;22.00;67.00;;;;;;215011;1293;22612;-59
2022/01/14 23:59:14;;;;;;;3.80;1.80;;;22.10;65.40;;;;;;214974;1293;22610;-57
